createdAt,value
2023-03-03T00:00:52.262Z,6.97
2023-03-03T00:03:22.341Z,6.88
2023-03-03T00:05:50.689Z,6.97
2023-03-03T00:08:19.256Z,6.97
2023-03-03T00:10:47.157Z,6.96
2023-03-03T00:13:23.208Z,6.89
2023-03-03T00:15:51.880Z,6.85
2023-03-03T00:18:24.082Z,6.81
2023-03-03T00:20:55.446Z,6.80
2023-03-03T00:23:40.537Z,6.79
2023-03-03T00:26:21.052Z,6.58
2023-03-03T00:28:54.576Z,6.61
2023-03-03T00:31:29.765Z,6.56
2023-03-03T00:34:20.261Z,6.59
2023-03-03T00:36:49.647Z,6.67
2023-03-03T00:39:34.126Z,6.63
2023-03-03T00:42:05.304Z,6.67
2023-03-03T00:44:45.636Z,6.74
2023-03-03T00:47:33.879Z,6.69
2023-03-03T00:50:07.363Z,6.81
2023-03-03T00:52:40.112Z,6.72
2023-03-03T00:55:07.780Z,6.78
2023-03-03T00:57:35.766Z,6.73
2023-03-03T01:00:05.321Z,6.70
2023-03-03T01:02:33.169Z,6.68
2023-03-03T01:05:01.032Z,6.77
2023-03-03T01:07:28.369Z,6.71
2023-03-03T01:09:55.729Z,6.88
2023-03-03T01:12:24.289Z,6.83
2023-03-03T01:14:53.024Z,6.69
2023-03-03T01:17:20.539Z,6.74
2023-03-03T01:19:48.313Z,6.72
2023-03-03T01:22:16.053Z,6.56
2023-03-03T01:24:43.452Z,6.53
2023-03-03T01:27:11.371Z,6.63
2023-03-03T01:29:38.880Z,6.65
2023-03-03T01:32:06.423Z,6.61
2023-03-03T01:34:34.120Z,6.75
2023-03-03T01:37:01.575Z,6.76
2023-03-03T01:39:28.910Z,6.75
2023-03-03T01:41:56.761Z,6.92
2023-03-03T01:44:24.197Z,6.81
2023-03-03T01:46:55.774Z,6.94
2023-03-03T01:49:29.738Z,6.82
2023-03-03T01:52:00.135Z,6.74
2023-03-03T01:54:30.628Z,6.86
2023-03-03T01:57:01.581Z,6.84
2023-03-03T01:59:32.357Z,6.88
2023-03-03T02:01:59.779Z,7.02
2023-03-03T02:04:28.837Z,7.04
2023-03-03T02:07:01.865Z,7.09
2023-03-03T02:09:51.075Z,7.06
2023-03-03T02:12:20.937Z,7.06
2023-03-03T02:14:48.324Z,7.19
2023-03-03T02:17:16.402Z,7.12
2023-03-03T02:19:49.108Z,7.14
2023-03-03T02:22:18.563Z,7.35
2023-03-03T02:24:59.065Z,7.46
2023-03-03T02:27:28.224Z,7.33
2023-03-03T02:29:55.923Z,7.37
2023-03-03T02:32:23.400Z,7.40
2023-03-03T02:34:52.477Z,7.35
2023-03-03T02:37:20.815Z,7.39
2023-03-03T02:39:48.225Z,7.26
2023-03-03T02:42:20.460Z,7.39
2023-03-03T02:44:49.131Z,7.40
2023-03-03T02:47:16.746Z,7.48
2023-03-03T02:49:45.195Z,7.48
2023-03-03T02:52:14.728Z,7.47
2023-03-03T02:54:42.609Z,7.50
2023-03-03T02:57:10.084Z,7.58
2023-03-03T02:59:37.821Z,7.59
2023-03-03T03:02:07.335Z,7.69
2023-03-03T03:04:35.773Z,7.69
2023-03-03T03:07:04.744Z,7.46
2023-03-03T03:09:32.670Z,7.59
2023-03-03T03:12:02.475Z,7.73
2023-03-03T03:14:31.017Z,7.81
2023-03-03T03:16:59.256Z,7.61
2023-03-03T03:19:28.168Z,7.72
2023-03-03T03:21:56.133Z,7.84
2023-03-03T03:24:23.714Z,7.95
2023-03-03T03:26:52.397Z,7.98
2023-03-03T03:29:20.153Z,7.93
2023-03-03T03:31:47.938Z,8.02
2023-03-03T03:34:15.364Z,8.09
2023-03-03T03:36:46.532Z,8.11
2023-03-03T03:39:14.397Z,7.96
2023-03-03T03:41:42.442Z,8.00
2023-03-03T03:44:10.218Z,8.00
2023-03-03T03:46:38.175Z,8.03
2023-03-03T03:49:06.380Z,8.16
2023-03-03T03:51:35.562Z,8.08
2023-03-03T03:54:03.391Z,8.11
2023-03-03T03:56:31.913Z,8.15
2023-03-03T03:59:00.927Z,8.27
2023-03-03T04:01:28.742Z,8.35
2023-03-03T04:03:57.249Z,8.28
2023-03-03T04:06:25.335Z,8.23
2023-03-03T04:08:53.033Z,8.29
2023-03-03T04:11:21.325Z,8.38
2023-03-03T04:13:48.819Z,8.46
2023-03-03T04:16:16.662Z,8.56
2023-03-03T04:18:46.560Z,8.49
2023-03-03T04:21:15.321Z,8.52
2023-03-03T04:23:43.222Z,8.38
2023-03-03T04:26:11.384Z,8.38
2023-03-03T04:28:39.461Z,8.31
2023-03-03T04:31:07.130Z,8.36
2023-03-03T04:33:35.047Z,8.38
2023-03-03T04:36:03.053Z,8.32
2023-03-03T04:38:30.506Z,8.44
2023-03-03T04:40:58.340Z,8.38
2023-03-03T04:43:26.207Z,8.30
2023-03-03T04:45:54.091Z,8.36
2023-03-03T04:48:21.899Z,8.53
2023-03-03T04:50:49.531Z,8.70
2023-03-03T04:53:16.996Z,8.67
2023-03-03T04:55:44.901Z,8.75
2023-03-03T04:58:12.593Z,8.70
2023-03-03T05:00:40.127Z,8.72
2023-03-03T05:03:10.655Z,8.77
2023-03-03T05:05:40.985Z,8.75
2023-03-03T05:08:08.630Z,8.76
2023-03-03T05:10:36.028Z,8.71
2023-03-03T05:13:03.507Z,8.73
2023-03-03T05:15:31.648Z,8.75
2023-03-03T05:17:59.205Z,8.65
2023-03-03T05:20:26.842Z,8.78
2023-03-03T05:22:54.886Z,8.84
2023-03-03T05:25:22.305Z,8.75
2023-03-03T05:27:50.049Z,8.77
2023-03-03T05:30:17.812Z,8.81
2023-03-03T05:32:46.725Z,8.80
2023-03-03T05:35:14.315Z,8.85
2023-03-03T05:37:46.810Z,8.80
2023-03-03T05:40:14.876Z,8.91
2023-03-03T05:42:42.449Z,8.92
2023-03-03T05:45:10.200Z,8.86
2023-03-03T05:47:37.987Z,8.91
2023-03-03T05:50:05.942Z,8.80
2023-03-03T05:52:33.370Z,8.78
2023-03-03T05:55:00.757Z,8.78
2023-03-03T05:57:28.473Z,8.78
2023-03-03T05:59:55.901Z,8.83
2023-03-03T06:02:23.253Z,8.83
2023-03-03T06:04:51.165Z,8.83
2023-03-03T06:07:18.551Z,8.87
2023-03-03T06:09:45.976Z,8.90
2023-03-03T06:12:13.613Z,8.85
2023-03-03T06:14:41.022Z,8.97
2023-03-03T06:17:08.359Z,9.05
2023-03-03T06:19:36.705Z,9.15
2023-03-03T06:22:04.097Z,9.39
2023-03-03T06:24:31.609Z,9.30
2023-03-03T06:26:59.410Z,9.18
2023-03-03T06:29:27.655Z,9.13
2023-03-03T06:31:55.384Z,9.12
2023-03-03T06:34:23.162Z,9.20
2023-03-03T06:36:50.671Z,9.21
2023-03-03T06:39:18.124Z,9.43
2023-03-03T06:41:45.749Z,9.52
2023-03-03T06:44:13.168Z,9.55
2023-03-03T06:46:40.534Z,9.51
2023-03-03T06:49:08.244Z,9.56
2023-03-03T06:51:39.845Z,9.55
2023-03-03T06:54:12.395Z,9.69
2023-03-03T06:56:41.175Z,10.01
2023-03-03T06:59:16.552Z,10.01
2023-03-03T07:01:45.973Z,9.82
2023-03-03T07:04:19.523Z,9.79
2023-03-03T07:06:47.215Z,9.92
2023-03-03T07:09:24.053Z,10.04
2023-03-03T07:11:52.902Z,9.82
2023-03-03T07:14:21.190Z,9.94
2023-03-03T07:16:54.975Z,9.93
2023-03-03T07:19:34.950Z,10.11
2023-03-03T07:22:16.918Z,9.99
2023-03-03T07:24:53.211Z,9.92
2023-03-03T07:27:24.994Z,10.19
2023-03-03T07:29:56.245Z,10.22
2023-03-03T07:32:40.440Z,10.40
2023-03-03T07:35:25.631Z,10.54
2023-03-03T07:37:53.044Z,10.81
2023-03-03T07:40:45.000Z,10.76
2023-03-03T07:43:28.464Z,10.87
2023-03-03T07:46:14.986Z,10.89
2023-03-03T07:48:42.874Z,10.86
2023-03-03T07:51:22.593Z,10.82
2023-03-03T07:53:50.259Z,10.79
2023-03-03T07:56:28.714Z,10.79
2023-03-03T07:58:57.468Z,10.89
2023-03-03T08:01:43.888Z,10.81
2023-03-03T08:04:38.180Z,10.77
2023-03-03T08:07:12.277Z,10.91
2023-03-03T08:10:01.833Z,11.09
2023-03-03T08:12:39.218Z,11.14
2023-03-03T08:15:20.422Z,10.96
2023-03-03T08:17:48.863Z,11.03
2023-03-03T08:20:34.705Z,11.14
2023-03-03T08:23:02.094Z,11.23
2023-03-03T08:25:29.846Z,11.47
2023-03-03T08:27:57.238Z,11.50
2023-03-03T08:30:24.642Z,11.53
2023-03-03T08:32:52.342Z,11.82
2023-03-03T08:35:19.946Z,11.81
2023-03-03T08:37:47.325Z,11.76
2023-03-03T08:40:15.191Z,11.94
2023-03-03T08:42:42.537Z,11.69
2023-03-03T08:45:09.957Z,11.52
2023-03-03T08:47:38.790Z,11.77
2023-03-03T08:50:06.633Z,11.76
2023-03-03T08:52:34.362Z,11.64
2023-03-03T08:55:02.693Z,11.78
2023-03-03T08:57:30.129Z,11.97
2023-03-03T08:59:57.647Z,12.04
2023-03-03T09:02:25.280Z,12.16
2023-03-03T09:04:52.745Z,12.55
2023-03-03T09:07:20.173Z,12.54
2023-03-03T09:09:47.818Z,12.03
2023-03-03T09:12:21.547Z,12.31
2023-03-03T09:14:51.088Z,12.45
2023-03-03T09:17:33.293Z,12.58
2023-03-03T09:20:03.289Z,12.60
2023-03-03T09:22:36.792Z,12.72
2023-03-03T09:25:19.218Z,12.66
2023-03-03T09:27:46.594Z,12.62
2023-03-03T09:30:26.447Z,12.61
2023-03-03T09:32:56.660Z,12.46
2023-03-03T09:35:38.710Z,12.54
2023-03-03T09:38:27.561Z,12.60
2023-03-03T09:41:04.349Z,12.50
2023-03-03T09:44:01.101Z,12.17
2023-03-03T09:46:43.585Z,12.16
2023-03-03T09:49:27.664Z,12.29
2023-03-03T09:51:58.217Z,12.68
2023-03-03T09:54:34.161Z,12.65
2023-03-03T09:57:22.506Z,12.82
2023-03-03T10:00:08.549Z,12.85
2023-03-03T10:02:52.958Z,12.94
2023-03-03T10:05:36.267Z,12.84
2023-03-03T10:08:18.060Z,12.97
2023-03-03T10:11:02.058Z,13.39
2023-03-03T10:13:47.543Z,13.06
2023-03-03T10:17:06.382Z,13.12
2023-03-03T10:20:00.202Z,13.56
2023-03-03T10:22:39.476Z,13.72
2023-03-03T10:25:37.776Z,13.84
2023-03-03T10:28:13.603Z,13.73
2023-03-03T10:30:58.228Z,13.64
2023-03-03T10:33:40.831Z,13.98
2023-03-03T10:36:41.580Z,14.29
2023-03-03T10:39:21.281Z,14.16
2023-03-03T10:42:22.422Z,14.36
2023-03-03T10:45:05.310Z,14.56
2023-03-03T10:47:44.724Z,14.63
2023-03-03T10:50:21.654Z,14.86
2023-03-03T10:52:58.951Z,14.99
2023-03-03T10:55:42.624Z,14.88
2023-03-03T10:58:32.430Z,14.78
2023-03-03T11:01:06.794Z,14.93
2023-03-03T11:03:49.937Z,14.91
2023-03-03T11:06:36.509Z,14.38
2023-03-03T11:09:15.534Z,14.72
2023-03-03T11:11:55.535Z,14.91
2023-03-03T11:14:35.637Z,14.76
2023-03-03T11:17:05.736Z,14.95
2023-03-03T11:19:52.746Z,15.16
2023-03-03T11:22:39.820Z,14.90
2023-03-03T11:25:23.598Z,14.64
2023-03-03T11:28:12.681Z,14.83
2023-03-03T11:31:07.550Z,14.81
2023-03-03T11:33:51.910Z,14.54
2023-03-03T11:36:32.326Z,14.93
2023-03-03T11:39:12.098Z,14.72
2023-03-03T11:41:51.499Z,14.78
2023-03-03T11:44:27.623Z,14.61
2023-03-03T11:47:19.394Z,14.56
2023-03-03T11:49:51.676Z,14.35
2023-03-03T11:52:49.042Z,14.39
2023-03-03T11:55:34.057Z,14.41
2023-03-03T11:58:14.439Z,14.46
2023-03-03T12:00:48.442Z,14.49
2023-03-03T12:03:30.698Z,14.42
2023-03-03T12:06:13.384Z,14.50
2023-03-03T12:08:55.993Z,14.41
2023-03-03T12:11:31.790Z,14.56
2023-03-03T12:14:18.256Z,14.62
2023-03-03T12:16:55.004Z,14.74
2023-03-03T12:19:32.018Z,14.93
2023-03-03T12:22:17.580Z,15.13
2023-03-03T12:25:03.798Z,15.07
2023-03-03T12:27:49.076Z,14.81
2023-03-03T12:30:27.148Z,14.87
2023-03-03T12:33:12.857Z,15.09
2023-03-03T12:35:58.074Z,15.34
2023-03-03T12:38:28.536Z,15.58
2023-03-03T12:41:21.629Z,15.70
2023-03-03T12:44:01.211Z,15.81
2023-03-03T12:46:56.883Z,15.54
2023-03-03T12:49:42.775Z,15.65
2023-03-03T12:52:26.748Z,15.61
2023-03-03T12:55:30.170Z,15.92
2023-03-03T12:58:28.890Z,15.94
2023-03-03T13:01:17.674Z,15.96
2023-03-03T13:04:05.197Z,16.00
2023-03-03T13:06:44.861Z,15.41
2023-03-03T13:09:54.079Z,15.07
2023-03-03T13:12:36.050Z,15.29
2023-03-03T13:15:33.284Z,15.21
2023-03-03T13:18:25.320Z,15.17
2023-03-03T13:21:02.220Z,15.02
2023-03-03T13:23:38.389Z,15.16
2023-03-03T13:26:33.725Z,15.36
2023-03-03T13:29:10.548Z,15.17
2023-03-03T13:31:47.885Z,15.23
2023-03-03T13:34:24.626Z,15.28
2023-03-03T13:37:32.411Z,15.31
2023-03-03T13:40:20.125Z,14.82
2023-03-03T13:42:52.302Z,15.01
2023-03-03T13:45:32.937Z,14.97
2023-03-03T13:48:03.904Z,14.94
2023-03-03T13:50:53.993Z,15.12
2023-03-03T13:53:52.187Z,14.81
2023-03-03T13:56:33.326Z,15.03
2023-03-03T13:59:18.471Z,15.19
2023-03-03T14:02:01.778Z,15.20
2023-03-03T14:04:35.471Z,15.38
2023-03-03T14:07:14.446Z,15.21
2023-03-03T14:09:44.115Z,15.23
2023-03-03T14:12:38.974Z,15.22
2023-03-03T14:15:23.691Z,15.36
2023-03-03T14:18:03.936Z,15.30
2023-03-03T14:20:34.851Z,15.18
2023-03-03T14:23:04.359Z,15.09
2023-03-03T14:25:52.806Z,15.07
2023-03-03T14:28:31.213Z,15.14
2023-03-03T14:31:14.927Z,15.26
2023-03-03T14:33:44.710Z,15.17
2023-03-03T14:36:13.291Z,14.74
2023-03-03T14:38:44.796Z,14.57
2023-03-03T14:41:12.348Z,14.86
2023-03-03T14:43:41.791Z,14.68
2023-03-03T14:46:44.841Z,14.68
2023-03-03T14:49:30.747Z,14.58
2023-03-03T14:52:22.398Z,14.26
2023-03-03T14:54:55.631Z,14.31
2023-03-03T14:57:51.197Z,14.20
2023-03-03T15:00:22.137Z,14.40
2023-03-03T15:02:52.252Z,14.18
2023-03-03T15:05:28.025Z,13.87
2023-03-03T15:08:03.254Z,13.76
2023-03-03T15:10:39.215Z,13.72
2023-03-03T15:13:22.006Z,13.42
2023-03-03T15:16:00.954Z,13.67
2023-03-03T15:18:30.058Z,13.56
2023-03-03T15:21:05.890Z,13.73
2023-03-03T15:23:33.192Z,13.70
2023-03-03T15:26:06.554Z,13.51
2023-03-03T15:28:52.402Z,13.64
2023-03-03T15:31:32.140Z,13.81
2023-03-03T15:34:12.592Z,13.73
2023-03-03T15:36:55.549Z,13.65
2023-03-03T15:39:47.292Z,13.55
2023-03-03T15:42:43.316Z,13.75
2023-03-03T15:45:31.701Z,13.68
2023-03-03T15:48:43.884Z,13.64
2023-03-03T15:51:31.360Z,13.22
2023-03-03T15:53:58.938Z,12.97
2023-03-03T15:56:26.293Z,13.02
2023-03-03T15:59:18.468Z,13.09
2023-03-03T16:01:57.436Z,13.00
2023-03-03T16:04:29.487Z,13.14
2023-03-03T16:07:06.026Z,13.12
2023-03-03T16:09:39.852Z,12.99
2023-03-03T16:12:28.761Z,12.93
2023-03-03T16:15:21.932Z,12.86
2023-03-03T16:18:11.358Z,13.00
2023-03-03T16:20:52.546Z,12.94
2023-03-03T16:23:32.316Z,12.96
2023-03-03T16:26:30.350Z,13.01
2023-03-03T16:29:36.086Z,12.86
2023-03-03T16:32:12.592Z,12.81
2023-03-03T16:34:48.671Z,12.70
2023-03-03T16:37:40.798Z,12.80
2023-03-03T16:40:13.716Z,12.96
2023-03-03T16:42:44.624Z,12.93
2023-03-03T16:45:25.213Z,12.91
2023-03-03T16:48:08.260Z,12.86
2023-03-03T16:50:54.272Z,12.81
2023-03-03T16:53:40.903Z,12.85
2023-03-03T16:56:17.222Z,12.76
2023-03-03T16:59:11.381Z,12.67
2023-03-03T17:02:12.026Z,12.53
2023-03-03T17:04:59.110Z,12.43
2023-03-03T17:07:56.070Z,12.30
2023-03-03T17:10:28.183Z,12.23
2023-03-03T17:13:01.958Z,11.96
2023-03-03T17:15:46.408Z,11.77
2023-03-03T17:18:45.061Z,11.64
2023-03-03T17:21:36.737Z,11.56
2023-03-03T17:24:25.678Z,11.29
2023-03-03T17:27:18.679Z,11.42
2023-03-03T17:29:51.997Z,11.18
2023-03-03T17:32:22.684Z,11.21
2023-03-03T17:35:21.345Z,11.07
2023-03-03T17:38:10.984Z,11.18
2023-03-03T17:40:41.362Z,11.23
2023-03-03T17:43:39.233Z,11.12
2023-03-03T17:46:15.032Z,10.95
2023-03-03T17:48:58.061Z,11.09
2023-03-03T17:52:04.621Z,11.03
2023-03-03T17:54:44.008Z,10.87
2023-03-03T17:57:26.880Z,10.91
2023-03-03T18:00:17.014Z,10.68
2023-03-03T18:03:18.357Z,10.38
2023-03-03T18:06:04.110Z,10.52
2023-03-03T18:08:46.683Z,10.55
2023-03-03T18:11:29.568Z,10.73
2023-03-03T18:14:02.656Z,10.77
2023-03-03T18:16:41.106Z,10.78
2023-03-03T18:19:39.790Z,10.74
2023-03-03T18:22:11.718Z,10.47
2023-03-03T18:24:54.670Z,10.46
2023-03-03T18:27:24.910Z,10.49
2023-03-03T18:30:07.623Z,10.42
2023-03-03T18:32:40.355Z,10.32
2023-03-03T18:35:32.902Z,10.27
2023-03-03T18:38:15.839Z,10.07
2023-03-03T18:41:11.117Z,10.01
2023-03-03T18:43:44.650Z,9.78
2023-03-03T18:46:22.611Z,9.65
2023-03-03T18:49:06.254Z,9.72
2023-03-03T18:51:37.050Z,9.61
2023-03-03T18:54:21.879Z,9.57
2023-03-03T18:56:59.916Z,9.58
2023-03-03T18:59:36.340Z,9.47
2023-03-03T19:02:12.810Z,9.39
2023-03-03T19:04:45.779Z,9.33
2023-03-03T19:07:29.672Z,9.45
2023-03-03T19:10:02.728Z,9.28
2023-03-03T19:12:57.897Z,9.11
2023-03-03T19:15:31.977Z,8.84
2023-03-03T19:18:15.004Z,8.90
2023-03-03T19:20:45.698Z,9.02
2023-03-03T19:23:22.677Z,8.97
2023-03-03T19:26:30.432Z,9.01
2023-03-03T19:29:07.102Z,8.83
2023-03-03T19:31:45.587Z,8.78
2023-03-03T19:34:45.917Z,8.80
2023-03-03T19:37:40.880Z,8.68
2023-03-03T19:40:14.277Z,8.61
2023-03-03T19:42:47.591Z,8.58
2023-03-03T19:45:18.214Z,8.71
2023-03-03T19:47:56.107Z,8.65
2023-03-03T19:50:33.220Z,8.67
2023-03-03T19:53:25.324Z,8.58
2023-03-03T19:56:18.522Z,8.54
2023-03-03T19:59:04.766Z,8.44
2023-03-03T20:01:51.211Z,8.24
2023-03-03T20:04:42.926Z,8.30
2023-03-03T20:07:17.554Z,8.22
2023-03-03T20:09:47.852Z,8.25
2023-03-03T20:12:24.340Z,8.16
2023-03-03T20:15:01.973Z,8.18
2023-03-03T20:17:51.065Z,8.10
2023-03-03T20:20:43.479Z,8.06
2023-03-03T20:23:32.895Z,8.03
2023-03-03T20:26:14.566Z,7.93
2023-03-03T20:28:48.118Z,7.78
2023-03-03T20:31:35.995Z,7.63
2023-03-03T20:34:18.633Z,7.38
2023-03-03T20:36:58.918Z,7.43
2023-03-03T20:39:50.772Z,7.38
2023-03-03T20:42:33.167Z,7.65
2023-03-03T20:45:52.750Z,7.59
2023-03-03T20:48:57.985Z,7.47
2023-03-03T20:51:46.808Z,7.31
2023-03-03T20:54:23.297Z,7.48
2023-03-03T20:56:59.991Z,7.55
2023-03-03T20:59:35.673Z,7.62
2023-03-03T21:02:18.370Z,7.62
2023-03-03T21:04:46.040Z,7.55
2023-03-03T21:07:24.731Z,7.58
2023-03-03T21:10:23.974Z,7.55
2023-03-03T21:12:55.976Z,7.62
2023-03-03T21:15:25.458Z,7.59
2023-03-03T21:17:54.917Z,7.66
2023-03-03T21:20:25.231Z,7.68
2023-03-03T21:22:53.157Z,7.77
2023-03-03T21:25:45.333Z,7.85
2023-03-03T21:28:20.552Z,7.89
2023-03-03T21:31:16.791Z,8.05
2023-03-03T21:33:52.612Z,7.92
2023-03-03T21:36:32.222Z,7.93
2023-03-03T21:39:02.148Z,7.78
2023-03-03T21:41:50.855Z,7.79
2023-03-03T21:44:30.768Z,7.85
2023-03-03T21:46:58.727Z,7.74
2023-03-03T21:49:26.678Z,7.77
2023-03-03T21:51:57.642Z,7.68
2023-03-03T21:54:25.106Z,7.66
2023-03-03T21:56:53.193Z,7.50
2023-03-03T21:59:20.639Z,7.43
2023-03-03T22:02:04.105Z,7.30
2023-03-03T22:04:35.322Z,7.33
2023-03-03T22:07:02.751Z,7.22
2023-03-03T22:09:30.200Z,7.35
2023-03-03T22:11:57.898Z,7.29
2023-03-03T22:14:25.246Z,7.14
2023-03-03T22:16:52.837Z,7.27
2023-03-03T22:19:20.567Z,6.95
2023-03-03T22:21:49.633Z,7.06
2023-03-03T22:24:17.862Z,7.07
2023-03-03T22:26:45.494Z,7.07
2023-03-03T22:29:13.001Z,6.90
2023-03-03T22:31:40.440Z,7.11
2023-03-03T22:34:08.534Z,7.08
2023-03-03T22:36:35.910Z,6.91
2023-03-03T22:39:03.366Z,6.93
2023-03-03T22:41:31.300Z,6.80
2023-03-03T22:43:58.781Z,6.71
2023-03-03T22:46:26.241Z,6.61
2023-03-03T22:48:53.994Z,6.68
2023-03-03T22:51:24.374Z,6.50
2023-03-03T22:53:51.799Z,6.56
2023-03-03T22:56:19.449Z,6.49
2023-03-03T22:58:46.970Z,6.31
2023-03-03T23:01:14.319Z,6.44
2023-03-03T23:03:41.933Z,6.47
2023-03-03T23:06:09.311Z,6.51
2023-03-03T23:08:36.948Z,6.49
2023-03-03T23:11:04.698Z,6.39
2023-03-03T23:13:32.593Z,6.41
2023-03-03T23:16:00.325Z,6.53
2023-03-03T23:18:28.643Z,6.39
2023-03-03T23:20:56.594Z,6.33
2023-03-03T23:23:24.161Z,6.22
2023-03-03T23:25:51.807Z,6.23
2023-03-03T23:28:19.354Z,6.33
2023-03-03T23:30:46.844Z,6.21
2023-03-03T23:33:14.757Z,6.17
2023-03-03T23:35:42.162Z,6.13
2023-03-03T23:38:15.128Z,6.06
2023-03-03T23:40:42.996Z,6.06
2023-03-03T23:43:10.436Z,6.05
2023-03-03T23:45:37.936Z,6.07
2023-03-03T23:48:06.110Z,5.90
2023-03-03T23:50:37.095Z,5.88
2023-03-03T23:53:05.384Z,5.86
2023-03-03T23:55:33.133Z,5.69
2023-03-03T23:58:00.586Z,5.60
